sensor_id;sensor_type;location;lat;lon;timestamp;P1;durP1;ratioP1;P2;durP2;ratioP2
64282;SDS011;50497;50.720;-2.084;2022-09-25T00:00:59;4.15;;;1.90;;
64282;SDS011;50497;50.720;-2.084;2022-09-25T00:03:26;5.88;;;2.20;;
64282;SDS011;50497;50.720;-2.084;2022-09-25T00:05:59;5.53;;;2.30;;
64282;SDS011;50497;50.720;-2.084;2022-09-25T00:08:34;5.57;;;2.03;;
64282;SDS011;50497;50.720;-2.084;2022-09-25T00:11:14;5.22;;;1.83;;
64282;SDS011;50497;50.720;-2.084;2022-09-25T00:13:42;4.63;;;1.80;;
64282;SDS011;50497;50.720;-2.084;2022-09-25T00:16:14;4.78;;;1.95;;
64282;SDS011;50497;50.720;-2.084;2022-09-25T00:21:49;4.57;;;1.90;;
64282;SDS011;50497;50.720;-2.084;2022-09-25T00:24:17;5.05;;;2.10;;
64282;SDS011;50497;50.720;-2.084;2022-09-25T00:26:43;4.82;;;2.20;;
64282;SDS011;50497;50.720;-2.084;2022-09-25T00:29:18;4.55;;;2.00;;
64282;SDS011;50497;50.720;-2.084;2022-09-25T00:31:46;6.93;;;1.90;;
64282;SDS011;50497;50.720;-2.084;2022-09-25T00:34:16;7.75;;;2.15;;
64282;SDS011;50497;50.720;-2.084;2022-09-25T00:36:48;5.40;;;2.03;;
64282;SDS011;50497;50.720;-2.084;2022-09-25T00:39:21;4.57;;;1.92;;
64282;SDS011;50497;50.720;-2.084;2022-09-25T00:41:50;4.82;;;1.80;;
64282;SDS011;50497;50.720;-2.084;2022-09-25T00:53:30;5.22;;;2.00;;
64282;SDS011;50497;50.720;-2.084;2022-09-25T00:56:05;4.28;;;1.90;;
64282;SDS011;50497;50.720;-2.084;2022-09-25T00:58:33;5.00;;;1.90;;
64282;SDS011;50497;50.720;-2.084;2022-09-25T01:01:12;8.68;;;2.10;;
64282;SDS011;50497;50.720;-2.084;2022-09-25T01:03:39;4.53;;;1.80;;
64282;SDS011;50497;50.720;-2.084;2022-09-25T01:06:10;4.65;;;1.90;;
64282;SDS011;50497;50.720;-2.084;2022-09-25T01:08:54;6.10;;;2.20;;
64282;SDS011;50497;50.720;-2.084;2022-09-25T01:11:25;6.97;;;2.15;;
64282;SDS011;50497;50.720;-2.084;2022-09-25T01:13:52;5.82;;;2.10;;
64282;SDS011;50497;50.720;-2.084;2022-09-25T01:16:33;6.68;;;2.00;;
64282;SDS011;50497;50.720;-2.084;2022-09-25T01:24:46;5.82;;;2.22;;
64282;SDS011;50497;50.720;-2.084;2022-09-25T01:30:35;7.28;;;2.22;;
64282;SDS011;50497;50.720;-2.084;2022-09-25T01:33:16;6.05;;;2.38;;
64282;SDS011;50497;50.720;-2.084;2022-09-25T01:35:56;5.75;;;2.25;;
64282;SDS011;50497;50.720;-2.084;2022-09-25T01:38:33;8.18;;;2.55;;
64282;SDS011;50497;50.720;-2.084;2022-09-25T01:44:08;5.70;;;1.98;;
64282;SDS011;50497;50.720;-2.084;2022-09-25T01:46:43;6.18;;;2.38;;
64282;SDS011;50497;50.720;-2.084;2022-09-25T01:49:19;5.88;;;3.00;;
64282;SDS011;50497;50.720;-2.084;2022-09-25T01:51:52;7.20;;;2.47;;
64282;SDS011;50497;50.720;-2.084;2022-09-25T01:54:32;5.75;;;2.30;;
64282;SDS011;50497;50.720;-2.084;2022-09-25T02:02:28;6.03;;;2.20;;
64282;SDS011;50497;50.720;-2.084;2022-09-25T02:05:02;9.10;;;2.60;;
64282;SDS011;50497;50.720;-2.084;2022-09-25T02:07:33;6.80;;;2.42;;
64282;SDS011;50497;50.720;-2.084;2022-09-25T02:10:13;9.18;;;2.50;;
64282;SDS011;50497;50.720;-2.084;2022-09-25T02:12:52;6.55;;;2.15;;
64282;SDS011;50497;50.720;-2.084;2022-09-25T02:15:31;9.40;;;2.30;;
64282;SDS011;50497;50.720;-2.084;2022-09-25T02:18:07;5.57;;;2.30;;
64282;SDS011;50497;50.720;-2.084;2022-09-25T02:26:45;7.15;;;2.40;;
64282;SDS011;50497;50.720;-2.084;2022-09-25T02:29:19;8.32;;;2.30;;
64282;SDS011;50497;50.720;-2.084;2022-09-25T02:34:57;5.82;;;2.40;;
64282;SDS011;50497;50.720;-2.084;2022-09-25T02:37:25;6.40;;;2.30;;
64282;SDS011;50497;50.720;-2.084;2022-09-25T02:39:59;8.50;;;2.45;;
64282;SDS011;50497;50.720;-2.084;2022-09-25T02:53:52;5.22;;;1.90;;
64282;SDS011;50497;50.720;-2.084;2022-09-25T02:59:03;6.85;;;2.15;;
64282;SDS011;50497;50.720;-2.084;2022-09-25T03:01:33;6.20;;;2.03;;
64282;SDS011;50497;50.720;-2.084;2022-09-25T03:04:05;7.95;;;2.13;;
64282;SDS011;50497;50.720;-2.084;2022-09-25T03:06:37;6.43;;;2.10;;
64282;SDS011;50497;50.720;-2.084;2022-09-25T03:09:08;7.32;;;2.30;;
64282;SDS011;50497;50.720;-2.084;2022-09-25T03:11:48;8.35;;;2.20;;
64282;SDS011;50497;50.720;-2.084;2022-09-25T03:14:20;5.95;;;2.13;;
64282;SDS011;50497;50.720;-2.084;2022-09-25T03:16:50;5.60;;;1.95;;
64282;SDS011;50497;50.720;-2.084;2022-09-25T03:19:26;5.53;;;2.00;;
64282;SDS011;50497;50.720;-2.084;2022-09-25T03:21:57;6.68;;;2.08;;
64282;SDS011;50497;50.720;-2.084;2022-09-25T03:24:26;7.13;;;2.10;;
64282;SDS011;50497;50.720;-2.084;2022-09-25T03:26:59;6.45;;;2.20;;
64282;SDS011;50497;50.720;-2.084;2022-09-25T03:29:30;5.20;;;1.90;;
64282;SDS011;50497;50.720;-2.084;2022-09-25T03:31:59;6.20;;;2.17;;
64282;SDS011;50497;50.720;-2.084;2022-09-25T03:34:32;6.95;;;2.28;;
64282;SDS011;50497;50.720;-2.084;2022-09-25T03:37:03;8.25;;;2.42;;
64282;SDS011;50497;50.720;-2.084;2022-09-25T03:39:35;7.80;;;2.35;;
64282;SDS011;50497;50.720;-2.084;2022-09-25T03:42:07;7.20;;;2.20;;
64282;SDS011;50497;50.720;-2.084;2022-09-25T03:44:37;9.48;;;2.67;;
64282;SDS011;50497;50.720;-2.084;2022-09-25T03:47:10;8.60;;;2.38;;
64282;SDS011;50497;50.720;-2.084;2022-09-25T03:49:39;11.52;;;2.58;;
64282;SDS011;50497;50.720;-2.084;2022-09-25T03:52:05;6.28;;;2.17;;
64282;SDS011;50497;50.720;-2.084;2022-09-25T03:54:38;6.32;;;2.30;;
64282;SDS011;50497;50.720;-2.084;2022-09-25T03:57:08;10.25;;;2.55;;
64282;SDS011;50497;50.720;-2.084;2022-09-25T03:59:36;7.03;;;2.03;;
64282;SDS011;50497;50.720;-2.084;2022-09-25T04:02:11;7.60;;;2.72;;
64282;SDS011;50497;50.720;-2.084;2022-09-25T04:04:37;7.53;;;2.20;;
64282;SDS011;50497;50.720;-2.084;2022-09-25T04:07:03;5.80;;;2.10;;
64282;SDS011;50497;50.720;-2.084;2022-09-25T04:09:35;6.32;;;2.05;;
64282;SDS011;50497;50.720;-2.084;2022-09-25T04:12:07;6.68;;;2.22;;
64282;SDS011;50497;50.720;-2.084;2022-09-25T04:14:39;8.35;;;2.33;;
64282;SDS011;50497;50.720;-2.084;2022-09-25T04:19:35;8.80;;;2.22;;
64282;SDS011;50497;50.720;-2.084;2022-09-25T04:22:01;5.93;;;2.13;;
64282;SDS011;50497;50.720;-2.084;2022-09-25T04:24:31;9.82;;;2.65;;
64282;SDS011;50497;50.720;-2.084;2022-09-25T04:27:19;7.18;;;2.40;;
64282;SDS011;50497;50.720;-2.084;2022-09-25T04:29:50;8.93;;;2.67;;
64282;SDS011;50497;50.720;-2.084;2022-09-25T04:32:21;8.82;;;2.40;;
64282;SDS011;50497;50.720;-2.084;2022-09-25T04:35:13;6.90;;;2.40;;
64282;SDS011;50497;50.720;-2.084;2022-09-25T04:37:46;6.57;;;2.15;;
64282;SDS011;50497;50.720;-2.084;2022-09-25T04:40:16;8.30;;;2.45;;
64282;SDS011;50497;50.720;-2.084;2022-09-25T04:42:44;8.20;;;2.50;;
64282;SDS011;50497;50.720;-2.084;2022-09-25T04:45:09;7.07;;;2.38;;
64282;SDS011;50497;50.720;-2.084;2022-09-25T04:47:40;7.88;;;2.53;;
64282;SDS011;50497;50.720;-2.084;2022-09-25T04:50:06;7.60;;;2.50;;
64282;SDS011;50497;50.720;-2.084;2022-09-25T04:52:32;7.40;;;2.42;;
64282;SDS011;50497;50.720;-2.084;2022-09-25T04:55:02;7.22;;;2.60;;
64282;SDS011;50497;50.720;-2.084;2022-09-25T04:57:28;7.30;;;2.60;;
64282;SDS011;50497;50.720;-2.084;2022-09-25T04:59:59;7.28;;;2.50;;
64282;SDS011;50497;50.720;-2.084;2022-09-25T05:02:29;7.85;;;2.67;;
64282;SDS011;50497;50.720;-2.084;2022-09-25T05:04:58;8.63;;;2.20;;
64282;SDS011;50497;50.720;-2.084;2022-09-25T05:07:25;8.20;;;2.75;;
64282;SDS011;50497;50.720;-2.084;2022-09-25T05:09:54;8.90;;;2.60;;
64282;SDS011;50497;50.720;-2.084;2022-09-25T05:12:23;7.95;;;2.63;;
64282;SDS011;50497;50.720;-2.084;2022-09-25T05:14:52;6.47;;;2.65;;
64282;SDS011;50497;50.720;-2.084;2022-09-25T05:17:24;6.97;;;2.70;;
64282;SDS011;50497;50.720;-2.084;2022-09-25T05:19:55;9.85;;;2.63;;
64282;SDS011;50497;50.720;-2.084;2022-09-25T05:22:25;8.90;;;2.95;;
64282;SDS011;50497;50.720;-2.084;2022-09-25T05:24:50;8.68;;;2.80;;
64282;SDS011;50497;50.720;-2.084;2022-09-25T05:27:17;6.47;;;2.80;;
64282;SDS011;50497;50.720;-2.084;2022-09-25T05:29:42;8.07;;;2.67;;
64282;SDS011;50497;50.720;-2.084;2022-09-25T05:32:11;7.90;;;2.70;;
64282;SDS011;50497;50.720;-2.084;2022-09-25T05:34:37;8.50;;;3.08;;
64282;SDS011;50497;50.720;-2.084;2022-09-25T05:37:03;9.77;;;2.80;;
64282;SDS011;50497;50.720;-2.084;2022-09-25T05:39:34;10.93;;;2.67;;
64282;SDS011;50497;50.720;-2.084;2022-09-25T05:42:06;7.25;;;2.78;;
64282;SDS011;50497;50.720;-2.084;2022-09-25T05:44:32;8.07;;;2.90;;
64282;SDS011;50497;50.720;-2.084;2022-09-25T05:46:58;8.88;;;2.80;;
64282;SDS011;50497;50.720;-2.084;2022-09-25T05:49:32;8.68;;;2.80;;
64282;SDS011;50497;50.720;-2.084;2022-09-25T05:51:57;9.38;;;2.80;;
64282;SDS011;50497;50.720;-2.084;2022-09-25T05:54:26;10.02;;;2.75;;
64282;SDS011;50497;50.720;-2.084;2022-09-25T05:56:59;8.35;;;2.70;;
64282;SDS011;50497;50.720;-2.084;2022-09-25T05:59:33;6.97;;;2.90;;
64282;SDS011;50497;50.720;-2.084;2022-09-25T06:02:02;9.45;;;2.50;;
64282;SDS011;50497;50.720;-2.084;2022-09-25T06:04:33;8.50;;;2.83;;
64282;SDS011;50497;50.720;-2.084;2022-09-25T06:07:07;7.22;;;2.83;;
64282;SDS011;50497;50.720;-2.084;2022-09-25T06:09:36;7.63;;;3.00;;
64282;SDS011;50497;50.720;-2.084;2022-09-25T06:12:07;8.13;;;2.97;;
64282;SDS011;50497;50.720;-2.084;2022-09-25T06:14:33;8.25;;;2.72;;
64282;SDS011;50497;50.720;-2.084;2022-09-25T06:17:05;7.10;;;2.90;;
64282;SDS011;50497;50.720;-2.084;2022-09-25T06:19:32;8.82;;;2.90;;
64282;SDS011;50497;50.720;-2.084;2022-09-25T06:22:04;9.20;;;2.80;;
64282;SDS011;50497;50.720;-2.084;2022-09-25T06:24:33;8.70;;;2.70;;
64282;SDS011;50497;50.720;-2.084;2022-09-25T06:26:58;6.57;;;2.50;;
64282;SDS011;50497;50.720;-2.084;2022-09-25T06:29:24;8.35;;;2.65;;
64282;SDS011;50497;50.720;-2.084;2022-09-25T06:31:50;10.50;;;2.90;;
64282;SDS011;50497;50.720;-2.084;2022-09-25T06:34:16;8.13;;;2.92;;
64282;SDS011;50497;50.720;-2.084;2022-09-25T06:36:41;8.02;;;2.78;;
64282;SDS011;50497;50.720;-2.084;2022-09-25T06:39:07;10.30;;;3.45;;
64282;SDS011;50497;50.720;-2.084;2022-09-25T06:41:42;11.93;;;3.00;;
64282;SDS011;50497;50.720;-2.084;2022-09-25T06:44:08;8.65;;;3.05;;
64282;SDS011;50497;50.720;-2.084;2022-09-25T06:46:37;7.95;;;2.78;;
64282;SDS011;50497;50.720;-2.084;2022-09-25T06:49:09;8.38;;;3.08;;
64282;SDS011;50497;50.720;-2.084;2022-09-25T06:51:37;9.65;;;2.97;;
64282;SDS011;50497;50.720;-2.084;2022-09-25T06:54:13;9.30;;;2.65;;
64282;SDS011;50497;50.720;-2.084;2022-09-25T06:56:42;9.90;;;2.72;;
64282;SDS011;50497;50.720;-2.084;2022-09-25T06:59:11;10.63;;;2.97;;
64282;SDS011;50497;50.720;-2.084;2022-09-25T07:01:39;8.80;;;3.13;;
64282;SDS011;50497;50.720;-2.084;2022-09-25T07:04:08;7.25;;;2.63;;
64282;SDS011;50497;50.720;-2.084;2022-09-25T07:06:34;7.03;;;2.50;;
64282;SDS011;50497;50.720;-2.084;2022-09-25T07:09:04;10.00;;;2.90;;
64282;SDS011;50497;50.720;-2.084;2022-09-25T07:11:32;10.20;;;3.72;;
64282;SDS011;50497;50.720;-2.084;2022-09-25T07:14:01;6.43;;;2.90;;
64282;SDS011;50497;50.720;-2.084;2022-09-25T07:16:33;10.15;;;3.03;;
64282;SDS011;50497;50.720;-2.084;2022-09-25T07:19:13;10.80;;;3.30;;
64282;SDS011;50497;50.720;-2.084;2022-09-25T07:21:41;7.93;;;2.70;;
64282;SDS011;50497;50.720;-2.084;2022-09-25T07:24:19;6.88;;;2.78;;
64282;SDS011;50497;50.720;-2.084;2022-09-25T07:27:05;11.68;;;2.80;;
64282;SDS011;50497;50.720;-2.084;2022-09-25T07:29:36;8.90;;;2.60;;
64282;SDS011;50497;50.720;-2.084;2022-09-25T07:32:10;8.23;;;2.70;;
64282;SDS011;50497;50.720;-2.084;2022-09-25T07:34:44;8.25;;;2.55;;
64282;SDS011;50497;50.720;-2.084;2022-09-25T07:37:20;8.75;;;2.60;;
64282;SDS011;50497;50.720;-2.084;2022-09-25T07:39:56;9.55;;;2.80;;
64282;SDS011;50497;50.720;-2.084;2022-09-25T07:42:29;6.25;;;2.28;;
64282;SDS011;50497;50.720;-2.084;2022-09-25T07:45:01;9.52;;;2.55;;
64282;SDS011;50497;50.720;-2.084;2022-09-25T07:47:37;8.43;;;2.58;;
64282;SDS011;50497;50.720;-2.084;2022-09-25T07:50:06;9.57;;;2.45;;
64282;SDS011;50497;50.720;-2.084;2022-09-25T07:52:45;12.77;;;3.40;;
64282;SDS011;50497;50.720;-2.084;2022-09-25T07:55:19;8.63;;;2.42;;
64282;SDS011;50497;50.720;-2.084;2022-09-25T07:58:00;7.55;;;2.40;;
64282;SDS011;50497;50.720;-2.084;2022-09-25T08:00:34;6.50;;;2.30;;
64282;SDS011;50497;50.720;-2.084;2022-09-25T08:03:00;6.80;;;2.13;;
64282;SDS011;50497;50.720;-2.084;2022-09-25T08:05:31;6.95;;;2.20;;
64282;SDS011;50497;50.720;-2.084;2022-09-25T08:08:08;6.70;;;2.00;;
64282;SDS011;50497;50.720;-2.084;2022-09-25T08:10:38;6.15;;;2.08;;
64282;SDS011;50497;50.720;-2.084;2022-09-25T08:13:07;9.77;;;2.10;;
64282;SDS011;50497;50.720;-2.084;2022-09-25T08:15:37;8.02;;;2.00;;
64282;SDS011;50497;50.720;-2.084;2022-09-25T08:18:13;7.85;;;2.30;;
64282;SDS011;50497;50.720;-2.084;2022-09-25T08:20:52;7.32;;;2.10;;
64282;SDS011;50497;50.720;-2.084;2022-09-25T08:23:18;7.15;;;2.25;;
64282;SDS011;50497;50.720;-2.084;2022-09-25T08:25:54;7.05;;;2.33;;
64282;SDS011;50497;50.720;-2.084;2022-09-25T08:28:29;5.80;;;2.08;;
64282;SDS011;50497;50.720;-2.084;2022-09-25T08:30:59;6.70;;;2.30;;
64282;SDS011;50497;50.720;-2.084;2022-09-25T08:33:29;6.03;;;2.00;;
64282;SDS011;50497;50.720;-2.084;2022-09-25T08:36:03;9.40;;;2.58;;
64282;SDS011;50497;50.720;-2.084;2022-09-25T08:38:31;6.72;;;2.17;;
64282;SDS011;50497;50.720;-2.084;2022-09-25T08:44:29;7.05;;;1.92;;
64282;SDS011;50497;50.720;-2.084;2022-09-25T08:47:38;6.80;;;2.08;;
64282;SDS011;50497;50.720;-2.084;2022-09-25T08:50:35;9.68;;;2.15;;
64282;SDS011;50497;50.720;-2.084;2022-09-25T08:53:07;7.88;;;1.90;;
64282;SDS011;50497;50.720;-2.084;2022-09-25T08:55:51;5.43;;;1.77;;
64282;SDS011;50497;50.720;-2.084;2022-09-25T09:01:21;4.63;;;1.40;;
64282;SDS011;50497;50.720;-2.084;2022-09-25T09:04:01;3.72;;;1.30;;
64282;SDS011;50497;50.720;-2.084;2022-09-25T09:06:39;5.63;;;1.40;;
64282;SDS011;50497;50.720;-2.084;2022-09-25T09:09:13;2.95;;;1.05;;
64282;SDS011;50497;50.720;-2.084;2022-09-25T09:11:52;4.57;;;1.23;;
64282;SDS011;50497;50.720;-2.084;2022-09-25T09:14:29;4.18;;;1.30;;
64282;SDS011;50497;50.720;-2.084;2022-09-25T09:23:18;5.75;;;1.30;;
64282;SDS011;50497;50.720;-2.084;2022-09-25T09:34:56;4.50;;;1.20;;
64282;SDS011;50497;50.720;-2.084;2022-09-25T09:43:31;3.90;;;1.20;;
64282;SDS011;50497;50.720;-2.084;2022-09-25T09:46:23;5.95;;;1.80;;
64282;SDS011;50497;50.720;-2.084;2022-09-25T09:49:17;5.63;;;1.92;;
64282;SDS011;50497;50.720;-2.084;2022-09-25T09:51:49;4.60;;;1.23;;
64282;SDS011;50497;50.720;-2.084;2022-09-25T09:54:45;3.83;;;1.17;;
64282;SDS011;50497;50.720;-2.084;2022-09-25T10:00:33;5.05;;;1.25;;
64282;SDS011;50497;50.720;-2.084;2022-09-25T10:03:03;3.55;;;1.00;;
64282;SDS011;50497;50.720;-2.084;2022-09-25T10:05:53;2.70;;;1.00;;
64282;SDS011;50497;50.720;-2.084;2022-09-25T10:11:16;2.58;;;1.00;;
64282;SDS011;50497;50.720;-2.084;2022-09-25T10:13:44;4.10;;;1.08;;
64282;SDS011;50497;50.720;-2.084;2022-09-25T10:16:21;2.28;;;0.93;;
64282;SDS011;50497;50.720;-2.084;2022-09-25T10:21:54;1.77;;;0.90;;
64282;SDS011;50497;50.720;-2.084;2022-09-25T10:30:52;3.67;;;1.00;;
64282;SDS011;50497;50.720;-2.084;2022-09-25T10:33:28;3.38;;;1.17;;
64282;SDS011;50497;50.720;-2.084;2022-09-25T10:35:59;6.15;;;1.20;;
64282;SDS011;50497;50.720;-2.084;2022-09-25T10:38:52;2.92;;;1.13;;
64282;SDS011;50497;50.720;-2.084;2022-09-25T10:41:18;3.35;;;1.10;;
64282;SDS011;50497;50.720;-2.084;2022-09-25T10:43:54;3.30;;;0.98;;
64282;SDS011;50497;50.720;-2.084;2022-09-25T10:50:10;2.63;;;1.00;;
64282;SDS011;50497;50.720;-2.084;2022-09-25T10:52:59;2.47;;;1.05;;
64282;SDS011;50497;50.720;-2.084;2022-09-25T11:01:19;2.97;;;1.15;;
64282;SDS011;50497;50.720;-2.084;2022-09-25T11:06:33;4.30;;;1.60;;
64282;SDS011;50497;50.720;-2.084;2022-09-25T11:09:03;2.70;;;1.30;;
64282;SDS011;50497;50.720;-2.084;2022-09-25T11:12:18;3.60;;;1.30;;
64282;SDS011;50497;50.720;-2.084;2022-09-25T11:15:03;10.10;;;2.20;;
64282;SDS011;50497;50.720;-2.084;2022-09-25T11:20:37;4.32;;;1.50;;
64282;SDS011;50497;50.720;-2.084;2022-09-25T11:31:36;4.13;;;1.27;;
64282;SDS011;50497;50.720;-2.084;2022-09-25T11:40:51;3.50;;;1.20;;
64282;SDS011;50497;50.720;-2.084;2022-09-25T11:49:42;3.13;;;1.20;;
64282;SDS011;50497;50.720;-2.084;2022-09-25T11:52:29;5.13;;;1.40;;
64282;SDS011;50497;50.720;-2.084;2022-09-25T12:04:28;4.15;;;1.60;;
64282;SDS011;50497;50.720;-2.084;2022-09-25T12:12:32;4.22;;;1.40;;
64282;SDS011;50497;50.720;-2.084;2022-09-25T12:15:25;3.65;;;1.20;;
64282;SDS011;50497;50.720;-2.084;2022-09-25T12:20:51;3.83;;;1.45;;
64282;SDS011;50497;50.720;-2.084;2022-09-25T12:26:34;4.13;;;1.50;;
64282;SDS011;50497;50.720;-2.084;2022-09-25T12:38:28;4.85;;;1.40;;
64282;SDS011;50497;50.720;-2.084;2022-09-25T12:49:51;4.47;;;1.30;;
64282;SDS011;50497;50.720;-2.084;2022-09-25T12:52:38;4.35;;;1.33;;
64282;SDS011;50497;50.720;-2.084;2022-09-25T12:55:27;4.60;;;1.55;;
64282;SDS011;50497;50.720;-2.084;2022-09-25T13:04:05;6.68;;;2.50;;
64282;SDS011;50497;50.720;-2.084;2022-09-25T13:07:31;5.60;;;1.98;;
64282;SDS011;50497;50.720;-2.084;2022-09-25T13:10:42;4.30;;;1.75;;
64282;SDS011;50497;50.720;-2.084;2022-09-25T13:13:49;4.90;;;1.33;;
64282;SDS011;50497;50.720;-2.084;2022-09-25T13:16:23;3.63;;;1.20;;
64282;SDS011;50497;50.720;-2.084;2022-09-25T13:21:39;5.07;;;1.50;;
64282;SDS011;50497;50.720;-2.084;2022-09-25T13:27:03;5.88;;;1.55;;
64282;SDS011;50497;50.720;-2.084;2022-09-25T13:29:34;3.22;;;1.42;;
64282;SDS011;50497;50.720;-2.084;2022-09-25T13:34:39;4.15;;;1.30;;
64282;SDS011;50497;50.720;-2.084;2022-09-25T13:39:58;3.40;;;1.23;;
64282;SDS011;50497;50.720;-2.084;2022-09-25T13:42:54;4.60;;;1.25;;
64282;SDS011;50497;50.720;-2.084;2022-09-25T13:45:48;3.63;;;1.27;;
64282;SDS011;50497;50.720;-2.084;2022-09-25T13:48:45;4.13;;;1.40;;
64282;SDS011;50497;50.720;-2.084;2022-09-25T13:53:54;3.40;;;1.20;;
64282;SDS011;50497;50.720;-2.084;2022-09-25T13:59:37;2.95;;;1.25;;
64282;SDS011;50497;50.720;-2.084;2022-09-25T14:05:12;4.75;;;1.25;;
64282;SDS011;50497;50.720;-2.084;2022-09-25T14:10:50;4.38;;;1.17;;
64282;SDS011;50497;50.720;-2.084;2022-09-25T14:13:25;4.07;;;1.10;;
64282;SDS011;50497;50.720;-2.084;2022-09-25T14:16:17;1.30;;;0.93;;
64282;SDS011;50497;50.720;-2.084;2022-09-25T14:19:10;3.83;;;1.42;;
64282;SDS011;50497;50.720;-2.084;2022-09-25T14:22:02;6.28;;;1.40;;
64282;SDS011;50497;50.720;-2.084;2022-09-25T14:24:32;4.78;;;1.20;;
64282;SDS011;50497;50.720;-2.084;2022-09-25T14:30:10;4.10;;;1.20;;
64282;SDS011;50497;50.720;-2.084;2022-09-25T14:33:04;2.53;;;1.20;;
64282;SDS011;50497;50.720;-2.084;2022-09-25T14:50:27;6.13;;;1.10;;
64282;SDS011;50497;50.720;-2.084;2022-09-25T14:52:59;4.65;;;1.20;;
64282;SDS011;50497;50.720;-2.084;2022-09-25T14:55:48;3.85;;;1.20;;
64282;SDS011;50497;50.720;-2.084;2022-09-25T15:03:56;4.13;;;1.30;;
64282;SDS011;50497;50.720;-2.084;2022-09-25T15:06:28;3.28;;;1.30;;
64282;SDS011;50497;50.720;-2.084;2022-09-25T15:08:59;7.93;;;1.48;;
64282;SDS011;50497;50.720;-2.084;2022-09-25T15:11:36;4.18;;;1.50;;
64282;SDS011;50497;50.720;-2.084;2022-09-25T15:14:21;5.50;;;1.40;;
64282;SDS011;50497;50.720;-2.084;2022-09-25T15:19:51;2.92;;;1.13;;
64282;SDS011;50497;50.720;-2.084;2022-09-25T15:22:18;2.50;;;1.10;;
64282;SDS011;50497;50.720;-2.084;2022-09-25T15:24:51;4.38;;;1.50;;
64282;SDS011;50497;50.720;-2.084;2022-09-25T15:33:35;4.65;;;1.60;;
64282;SDS011;50497;50.720;-2.084;2022-09-25T15:36:22;3.45;;;1.20;;
64282;SDS011;50497;50.720;-2.084;2022-09-25T15:39:11;3.45;;;1.30;;
64282;SDS011;50497;50.720;-2.084;2022-09-25T15:41:52;4.68;;;1.48;;
64282;SDS011;50497;50.720;-2.084;2022-09-25T15:44:24;4.43;;;1.50;;
64282;SDS011;50497;50.720;-2.084;2022-09-25T15:49:54;2.60;;;1.20;;
64282;SDS011;50497;50.720;-2.084;2022-09-25T15:52:27;4.30;;;1.30;;
64282;SDS011;50497;50.720;-2.084;2022-09-25T15:55:02;4.82;;;1.40;;
64282;SDS011;50497;50.720;-2.084;2022-09-25T16:00:23;3.40;;;1.10;;
64282;SDS011;50497;50.720;-2.084;2022-09-25T16:05:59;4.60;;;1.40;;
64282;SDS011;50497;50.720;-2.084;2022-09-25T16:11:32;2.25;;;1.20;;
64282;SDS011;50497;50.720;-2.084;2022-09-25T16:14:18;3.80;;;1.27;;
64282;SDS011;50497;50.720;-2.084;2022-09-25T16:20:02;3.22;;;1.20;;
64282;SDS011;50497;50.720;-2.084;2022-09-25T16:22:39;3.80;;;1.23;;
64282;SDS011;50497;50.720;-2.084;2022-09-25T16:31:52;5.22;;;1.50;;
64282;SDS011;50497;50.720;-2.084;2022-09-25T16:34:35;4.35;;;1.80;;
64282;SDS011;50497;50.720;-2.084;2022-09-25T16:40:32;4.10;;;1.25;;
64282;SDS011;50497;50.720;-2.084;2022-09-25T16:43:23;3.50;;;1.10;;
64282;SDS011;50497;50.720;-2.084;2022-09-25T16:46:19;6.65;;;1.30;;
64282;SDS011;50497;50.720;-2.084;2022-09-25T16:49:07;5.30;;;1.27;;
64282;SDS011;50497;50.720;-2.084;2022-09-25T16:51:36;3.97;;;1.27;;
64282;SDS011;50497;50.720;-2.084;2022-09-25T16:54:17;3.08;;;1.20;;
64282;SDS011;50497;50.720;-2.084;2022-09-25T16:59:41;2.97;;;1.20;;
64282;SDS011;50497;50.720;-2.084;2022-09-25T17:02:19;4.80;;;1.30;;
64282;SDS011;50497;50.720;-2.084;2022-09-25T17:11:22;3.97;;;1.40;;
64282;SDS011;50497;50.720;-2.084;2022-09-25T17:14:28;5.13;;;1.38;;
64282;SDS011;50497;50.720;-2.084;2022-09-25T17:19:52;3.65;;;1.40;;
64282;SDS011;50497;50.720;-2.084;2022-09-25T17:22:26;5.15;;;1.92;;
64282;SDS011;50497;50.720;-2.084;2022-09-25T17:24:59;4.40;;;1.65;;
64282;SDS011;50497;50.720;-2.084;2022-09-25T17:30:43;6.78;;;1.95;;
64282;SDS011;50497;50.720;-2.084;2022-09-25T17:33:17;4.22;;;1.60;;
64282;SDS011;50497;50.720;-2.084;2022-09-25T17:36:06;5.78;;;1.80;;
64282;SDS011;50497;50.720;-2.084;2022-09-25T17:41:42;4.50;;;1.65;;
64282;SDS011;50497;50.720;-2.084;2022-09-25T17:44:18;6.35;;;1.52;;
64282;SDS011;50497;50.720;-2.084;2022-09-25T17:50:16;4.90;;;1.60;;
64282;SDS011;50497;50.720;-2.084;2022-09-25T17:52:42;6.63;;;2.03;;
64282;SDS011;50497;50.720;-2.084;2022-09-25T17:55:11;8.45;;;2.83;;
64282;SDS011;50497;50.720;-2.084;2022-09-25T18:00:53;5.70;;;1.60;;
64282;SDS011;50497;50.720;-2.084;2022-09-25T18:03:20;5.72;;;1.52;;
64282;SDS011;50497;50.720;-2.084;2022-09-25T18:05:46;3.65;;;1.48;;
64282;SDS011;50497;50.720;-2.084;2022-09-25T18:11:19;4.25;;;1.70;;
64282;SDS011;50497;50.720;-2.084;2022-09-25T18:13:50;3.92;;;1.73;;
64282;SDS011;50497;50.720;-2.084;2022-09-25T18:16:20;6.63;;;1.90;;
64282;SDS011;50497;50.720;-2.084;2022-09-25T18:18:49;6.07;;;2.50;;
64282;SDS011;50497;50.720;-2.084;2022-09-25T18:21:33;7.63;;;2.50;;
64282;SDS011;50497;50.720;-2.084;2022-09-25T18:24:17;8.00;;;2.50;;
64282;SDS011;50497;50.720;-2.084;2022-09-25T18:33:17;9.88;;;3.42;;
64282;SDS011;50497;50.720;-2.084;2022-09-25T18:36:13;7.25;;;4.07;;
64282;SDS011;50497;50.720;-2.084;2022-09-25T18:41:57;7.38;;;3.15;;
64282;SDS011;50497;50.720;-2.084;2022-09-25T18:44:27;7.47;;;3.63;;
64282;SDS011;50497;50.720;-2.084;2022-09-25T18:49:50;7.53;;;3.72;;
64282;SDS011;50497;50.720;-2.084;2022-09-25T18:52:19;7.45;;;3.65;;
64282;SDS011;50497;50.720;-2.084;2022-09-25T18:54:45;8.82;;;3.15;;
64282;SDS011;50497;50.720;-2.084;2022-09-25T19:00:09;5.55;;;2.67;;
64282;SDS011;50497;50.720;-2.084;2022-09-25T19:02:38;6.03;;;2.53;;
64282;SDS011;50497;50.720;-2.084;2022-09-25T19:05:05;5.32;;;2.20;;
64282;SDS011;50497;50.720;-2.084;2022-09-25T19:10:53;5.38;;;1.80;;
64282;SDS011;50497;50.720;-2.084;2022-09-25T19:13:18;5.35;;;1.77;;
64282;SDS011;50497;50.720;-2.084;2022-09-25T19:15:58;4.40;;;1.70;;
64282;SDS011;50497;50.720;-2.084;2022-09-25T19:24:57;6.18;;;3.08;;
64282;SDS011;50497;50.720;-2.084;2022-09-25T19:30:26;6.57;;;2.42;;
64282;SDS011;50497;50.720;-2.084;2022-09-25T19:32:56;8.13;;;3.15;;
64282;SDS011;50497;50.720;-2.084;2022-09-25T19:35:27;6.78;;;2.53;;
64282;SDS011;50497;50.720;-2.084;2022-09-25T19:41:03;5.70;;;2.10;;
64282;SDS011;50497;50.720;-2.084;2022-09-25T19:43:34;5.57;;;1.75;;
64282;SDS011;50497;50.720;-2.084;2022-09-25T19:46:06;6.75;;;2.00;;
64282;SDS011;50497;50.720;-2.084;2022-09-25T19:51:21;4.43;;;1.83;;
64282;SDS011;50497;50.720;-2.084;2022-09-25T19:53:55;5.10;;;1.90;;
64282;SDS011;50497;50.720;-2.084;2022-09-25T19:59:43;5.20;;;1.88;;
64282;SDS011;50497;50.720;-2.084;2022-09-25T20:02:14;5.45;;;1.60;;
64282;SDS011;50497;50.720;-2.084;2022-09-25T20:04:43;4.57;;;1.52;;
64282;SDS011;50497;50.720;-2.084;2022-09-25T20:14:35;4.60;;;1.50;;
64282;SDS011;50497;50.720;-2.084;2022-09-25T20:20:10;3.85;;;1.70;;
64282;SDS011;50497;50.720;-2.084;2022-09-25T20:22:43;5.35;;;1.50;;
64282;SDS011;50497;50.720;-2.084;2022-09-25T20:25:29;4.88;;;1.50;;
64282;SDS011;50497;50.720;-2.084;2022-09-25T20:31:02;5.20;;;1.48;;
64282;SDS011;50497;50.720;-2.084;2022-09-25T20:33:32;4.60;;;1.50;;
64282;SDS011;50497;50.720;-2.084;2022-09-25T20:36:04;6.85;;;1.35;;
64282;SDS011;50497;50.720;-2.084;2022-09-25T20:39:02;5.07;;;1.58;;
64282;SDS011;50497;50.720;-2.084;2022-09-25T20:41:29;5.60;;;1.60;;
64282;SDS011;50497;50.720;-2.084;2022-09-25T20:43:59;5.13;;;1.40;;
64282;SDS011;50497;50.720;-2.084;2022-09-25T20:50:03;3.50;;;1.30;;
64282;SDS011;50497;50.720;-2.084;2022-09-25T20:52:34;4.63;;;1.50;;
64282;SDS011;50497;50.720;-2.084;2022-09-25T20:55:03;5.60;;;1.60;;
64282;SDS011;50497;50.720;-2.084;2022-09-25T21:00:53;5.03;;;1.33;;